WetterOnline ( https://www.wetteronline.de )

Wetter aktuell Warburg

Aktuelles Wetter: Warburg (237m)

6-stündlich | Neueste Meldungen
Ortszeit Temperatur Wetter
Mo, 26.07. 2:00 17.9° C leichter Regen
So, 25.07. 20:00 23.8° C wolkenlos
So, 25.07. 14:00 24.1° C leicht bewölkt
So, 25.07. 8:00 16.7° C wolkenlos
So, 25.07. 2:00 17.2° C bedeckt
Sa, 24.07. 20:00 20.4° C bedeckt
Sa, 24.07. 14:00 25.9° C wolkig
Sa, 24.07. 8:00 15.1° C fast wolkenlos
Ortszeit Temperatur Wetter
Mo, 26.07. 5:00 15.0° C leicht bewölkt
Mo, 26.07. 4:50 15.0° C leicht bewölkt
Mo, 26.07. 4:40 14.5° C leicht bewölkt
Mo, 26.07. 4:30 15.3° C wolkenlos
Mo, 26.07. 4:20 15.3° C wolkenlos
Mo, 26.07. 4:10 15.7° C wolkenlos
Mo, 26.07. 4:00 15.8° C leicht bewölkt
Mo, 26.07. 3:30 16.3° C bewölkt
Mo, 26.07. 3:00 16.9° C bewölkt
Mo, 26.07. 2:30 17.1° C bedeckt
Mo, 26.07. 2:00 17.9° C leichter Regen
Ortszeit Relative Feuchte Sichtweite
Mo, 26.07. 2:00 85% 50 km
So, 25.07. 20:00 52% >70 km
So, 25.07. 14:00 63% 50 km
So, 25.07. 8:00 89% 19 km
So, 25.07. 2:00 93% 17 km
Sa, 24.07. 20:00 91% 20 km
Sa, 24.07. 14:00 51% 40 km
Sa, 24.07. 8:00 83% 27 km
Ortszeit Relative Feuchte Sichtweite
Mo, 26.07. 5:00 97% 28 km
Mo, 26.07. 4:50 97% -
Mo, 26.07. 4:40 97% -
Mo, 26.07. 4:30 94% 40 km
Mo, 26.07. 4:20 94% -
Mo, 26.07. 4:10 94% -
Mo, 26.07. 4:00 95% 35 km
Mo, 26.07. 3:30 94% 40 km
Mo, 26.07. 3:00 90% 50 km
Mo, 26.07. 2:30 88% 55 km
Mo, 26.07. 2:00 85% 50 km
Ortszeit Niederschlagsmenge Niederschlagsart
Mo, 26.07. 2:00 0.1 l/m2 in 6 Std. Regen
So, 25.07. 20:00 0.1 l/m2 in 12 Std. -
So, 25.07. 14:00 0.1 l/m2 in 6 Std. Regen
So, 25.07. 8:00 0.0 l/m2 in 12 Std. -
So, 25.07. 2:00 0.0 l/m2 in 6 Std. -
Sa, 24.07. 20:00 0.7 l/m2 in 12 Std. Regen
Sa, 24.07. 14:00 0.0 l/m2 in 6 Std. -
Sa, 24.07. 8:00 0.0 l/m2 in 12 Std. -
Ortszeit Niederschlagsmenge Niederschlagsart
Mo, 26.07. 5:00 0.0 l/m2 in 1 Std. Regen
Mo, 26.07. 4:50 keine Meldung -
Mo, 26.07. 4:40 keine Meldung -
Mo, 26.07. 4:30 0.0 l/m2 in 1 Std. -
Mo, 26.07. 4:20 keine Meldung -
Mo, 26.07. 4:10 keine Meldung -
Mo, 26.07. 4:00 0.0 l/m2 in 1 Std. -
Mo, 26.07. 3:30 0.0 l/m2 in 1 Std. -
Mo, 26.07. 3:00 0.1 l/m2 in 1 Std. Regen
Mo, 26.07. 2:30 0.1 l/m2 in 1 Std. Schneeregen
Mo, 26.07. 2:00 0.1 l/m2 in 1 Std. Regen
Ortszeit Stärke Spitze Richtung
km/h Bft. km/h Grad Sektor
Mo, 26.07. 2:00 7 2 32 360° N
So, 25.07. 20:00 4 1 29 360° N
So, 25.07. 14:00 11 2 25 360° N
So, 25.07. 8:00 7 2 14 360° N
So, 25.07. 2:00 6 1 15 360° N
Sa, 24.07. 20:00 2 1 28 360° N
Sa, 24.07. 14:00 14 3 29 130° SO
Sa, 24.07. 8:00 6 1 11 30° NO
Ortszeit Stärke Spitze Richtung
km/h Bft. km/h Grad Sektor
Mo, 26.07. 5:00 6 1 9 360° N
Mo, 26.07. 4:50 6 1 - 360° N
Mo, 26.07. 4:40 4 1 - 360° N
Mo, 26.07. 4:30 4 1 11 80° O
Mo, 26.07. 4:20 4 1 - 80° O
Mo, 26.07. 4:10 4 1 - 360° N
Mo, 26.07. 4:00 7 2 11 360° N
Mo, 26.07. 3:30 7 2 11 360° N
Mo, 26.07. 3:00 6 1 13 360° N
Mo, 26.07. 2:30 6 1 13 360° N
Mo, 26.07. 2:00 7 2 32 360° N
Ortszeit Untergrenze Bedeckung Gattung
total tief tief mittel hoch
Mo, 26.07. 2:00 2100 m 7/8 7/8 - - -
So, 25.07. 20:00 - 0/8 0/8 - - -
So, 25.07. 14:00 810 m 2/8 2/8 - - -
So, 25.07. 8:00 3000 m 0/8 0/8 - - -
So, 25.07. 2:00 3000 m 8/8 8/8 - - -
Sa, 24.07. 20:00 1350 m 8/8 8/8 - - -
Sa, 24.07. 14:00 2100 m 8/8 1/8 - - -
Sa, 24.07. 8:00 9000 m 1/8 0/8 - - -
Ortszeit Bedeckungsgrad in Achtel und Wolkenuntergrenze
Mo, 26.07. 5:00 5(8100m) 6(9000m)
Mo, 26.07. 4:50 5(8100m) 6(9000m)
Mo, 26.07. 4:40 2(8400m) 3(9000m)
Mo, 26.07. 4:30 keine Wolken
Mo, 26.07. 4:20 keine Wolken
Mo, 26.07. 4:10 keine Wolken
Mo, 26.07. 4:00 1(3300m)
Mo, 26.07. 3:30 4(3300m) 8(8100m)
Mo, 26.07. 3:00 7(2700m) 8(9000m) 8(9000m)
Mo, 26.07. 2:30 8(3000m)
Mo, 26.07. 2:00 2(2100m) 7(2400m) 7(3300m)
Ortszeit Luftdruck NN (hPa) Tendenz (hPa in 3 Std.)
Mo, 26.07. 2:00 1010 - 0,1
So, 25.07. 20:00 1008 - 0,4
So, 25.07. 14:00 1009 - 0,1
So, 25.07. 8:00 1009 + 0,4
So, 25.07. 2:00 1009 + 0,5
Sa, 24.07. 20:00 1007 - 1,3
Sa, 24.07. 14:00 1009 - 1,4
Sa, 24.07. 8:00 1012 - 0,9
Ortszeit Luftdruck NN (hPa) Tendenz (hPa in 3 Std.)
Mo, 26.07. 5:00 1011 + 0,4
Mo, 26.07. 4:50 1011 keine Meldung
Mo, 26.07. 4:40 1011 keine Meldung
Mo, 26.07. 4:30 1011 - 0,5
Mo, 26.07. 4:20 1011 keine Meldung
Mo, 26.07. 4:10 1011 keine Meldung
Mo, 26.07. 4:00 1010 - 0,8
Mo, 26.07. 3:30 1010 - 1,0
Mo, 26.07. 3:00 1010 - 1,0
Mo, 26.07. 2:30 1010 - 0,7
Mo, 26.07. 2:00 1010 - 0,1
Ortszeit Schneehöhe (cm)
Mo, 26.07. 2:00 -
So, 25.07. 20:00 -
So, 25.07. 14:00 -
So, 25.07. 8:00 -
So, 25.07. 2:00 -
Sa, 24.07. 20:00 -
Sa, 24.07. 14:00 -
Sa, 24.07. 8:00 -
Ortszeit Schneehöhe (cm)
Mo, 26.07. 5:00 -
Mo, 26.07. 4:50 -
Mo, 26.07. 4:40 -
Mo, 26.07. 4:30 -
Mo, 26.07. 4:20 -
Mo, 26.07. 4:10 -
Mo, 26.07. 4:00 -
Mo, 26.07. 3:30 -
Mo, 26.07. 3:00 -
Mo, 26.07. 2:30 -
Mo, 26.07. 2:00 -
Link zu dieser Seite / Seite empfehlen

Das Wetter in ...